sensor_id;sensor_type;location;lat;lon;timestamp;pressure;altitude;pressure_sealevel;temperature;humidity
57594;BME280;43423;46.510;6.686;2023-07-31T00:00:11;96664.16;;;17.28;61.50
57594;BME280;43423;46.510;6.686;2023-07-31T00:02:57;96667.19;;;17.30;61.25
57594;BME280;43423;46.510;6.686;2023-07-31T00:05:22;96665.53;;;17.46;60.64
57594;BME280;43423;46.510;6.686;2023-07-31T00:07:48;96659.81;;;17.63;60.16
57594;BME280;43423;46.510;6.686;2023-07-31T00:10:13;96663.78;;;17.67;59.58
57594;BME280;43423;46.510;6.686;2023-07-31T00:12:41;96672.69;;;17.60;60.49
57594;BME280;43423;46.510;6.686;2023-07-31T00:15:08;96673.84;;;17.76;59.20
57594;BME280;43423;46.510;6.686;2023-07-31T00:17:34;96670.09;;;17.68;59.40
57594;BME280;43423;46.510;6.686;2023-07-31T00:19:59;96671.13;;;17.70;59.27
57594;BME280;43423;46.510;6.686;2023-07-31T00:22:25;96676.56;;;17.81;58.42
57594;BME280;43423;46.510;6.686;2023-07-31T00:24:51;96671.97;;;17.84;58.25
57594;BME280;43423;46.510;6.686;2023-07-31T00:27:16;96672.81;;;17.79;58.38
57594;BME280;43423;46.510;6.686;2023-07-31T00:29:42;96659.13;;;17.81;58.10
57594;BME280;43423;46.510;6.686;2023-07-31T00:32:08;96654.44;;;17.70;58.39
57594;BME280;43423;46.510;6.686;2023-07-31T00:34:33;96657.69;;;17.69;58.28
57594;BME280;43423;46.510;6.686;2023-07-31T00:36:59;96658.44;;;17.45;59.14
57594;BME280;43423;46.510;6.686;2023-07-31T00:39:24;96651.06;;;17.23;59.94
57594;BME280;43423;46.510;6.686;2023-07-31T00:41:50;96647.34;;;17.15;60.07
57594;BME280;43423;46.510;6.686;2023-07-31T00:44:15;96643.75;;;17.20;60.11
57594;BME280;43423;46.510;6.686;2023-07-31T00:46:41;96647.47;;;17.28;59.99
57594;BME280;43423;46.510;6.686;2023-07-31T00:49:07;96646.69;;;17.33;59.87
57594;BME280;43423;46.510;6.686;2023-07-31T00:51:34;96651.84;;;17.48;59.25
57594;BME280;43423;46.510;6.686;2023-07-31T00:54:00;96639.16;;;17.52;58.81
57594;BME280;43423;46.510;6.686;2023-07-31T00:56:27;96637.31;;;17.61;58.41
57594;BME280;43423;46.510;6.686;2023-07-31T00:58:53;96629.53;;;17.53;58.50
57594;BME280;43423;46.510;6.686;2023-07-31T01:01:19;96637.09;;;17.58;58.72
57594;BME280;43423;46.510;6.686;2023-07-31T01:03:44;96628.78;;;17.53;58.46
57594;BME280;43423;46.510;6.686;2023-07-31T01:06:36;96632.91;;;17.46;59.27
57594;BME280;43423;46.510;6.686;2023-07-31T01:09:20;96625.03;;;17.50;59.70
57594;BME280;43423;46.510;6.686;2023-07-31T01:11:56;96624.09;;;17.42;59.16
57594;BME280;43423;46.510;6.686;2023-07-31T01:14:22;96620.53;;;17.47;59.18
57594;BME280;43423;46.510;6.686;2023-07-31T01:16:48;96625.44;;;17.60;58.25
57594;BME280;43423;46.510;6.686;2023-07-31T01:19:20;96628.16;;;17.66;58.19
57594;BME280;43423;46.510;6.686;2023-07-31T01:27:41;96623.78;;;17.76;57.88
57594;BME280;43423;46.510;6.686;2023-07-31T01:30:16;96623.72;;;17.81;57.65
57594;BME280;43423;46.510;6.686;2023-07-31T01:32:43;96618.38;;;17.83;57.69
57594;BME280;43423;46.510;6.686;2023-07-31T01:35:10;96625.81;;;17.75;58.09
57594;BME280;43423;46.510;6.686;2023-07-31T01:37:36;96619.38;;;17.62;58.81
57594;BME280;43423;46.510;6.686;2023-07-31T01:40:03;96614.22;;;17.47;58.66
57594;BME280;43423;46.510;6.686;2023-07-31T01:42:29;96613.47;;;17.46;58.94
57594;BME280;43423;46.510;6.686;2023-07-31T01:44:55;96605.94;;;17.41;59.04
57594;BME280;43423;46.510;6.686;2023-07-31T01:47:21;96607.72;;;17.39;59.07
57594;BME280;43423;46.510;6.686;2023-07-31T01:49:46;96600.38;;;17.41;58.77
57594;BME280;43423;46.510;6.686;2023-07-31T01:52:12;96597.38;;;17.39;58.73
57594;BME280;43423;46.510;6.686;2023-07-31T01:54:37;96590.03;;;17.36;59.33
57594;BME280;43423;46.510;6.686;2023-07-31T01:57:03;96592.81;;;17.36;59.17
57594;BME280;43423;46.510;6.686;2023-07-31T01:59:29;96600.38;;;17.41;59.64
57594;BME280;43423;46.510;6.686;2023-07-31T02:01:55;96595.03;;;17.43;58.98
57594;BME280;43423;46.510;6.686;2023-07-31T02:04:20;96592.25;;;17.43;58.75
57594;BME280;43423;46.510;6.686;2023-07-31T02:06:46;96590.81;;;17.37;59.40
57594;BME280;43423;46.510;6.686;2023-07-31T02:09:11;96587.28;;;17.36;59.30
57594;BME280;43423;46.510;6.686;2023-07-31T02:11:37;96584.25;;;17.34;58.83
57594;BME280;43423;46.510;6.686;2023-07-31T02:14:02;96585.75;;;17.35;58.61
57594;BME280;43423;46.510;6.686;2023-07-31T02:16:28;96589.03;;;17.39;59.38
57594;BME280;43423;46.510;6.686;2023-07-31T02:18:53;96591.91;;;17.28;59.48
57594;BME280;43423;46.510;6.686;2023-07-31T02:21:19;96585.06;;;17.29;60.17
57594;BME280;43423;46.510;6.686;2023-07-31T02:23:44;96585.00;;;17.35;60.43
57594;BME280;43423;46.510;6.686;2023-07-31T02:26:10;96590.81;;;17.37;60.19
57594;BME280;43423;46.510;6.686;2023-07-31T02:28:36;96588.16;;;17.50;59.70
57594;BME280;43423;46.510;6.686;2023-07-31T02:31:01;96583.91;;;17.68;59.42
57594;BME280;43423;46.510;6.686;2023-07-31T02:33:27;96583.81;;;17.54;59.58
57594;BME280;43423;46.510;6.686;2023-07-31T02:35:53;96578.53;;;17.75;59.46
57594;BME280;43423;46.510;6.686;2023-07-31T02:38:18;96579.09;;;17.68;59.53
57594;BME280;43423;46.510;6.686;2023-07-31T02:40:44;96576.13;;;17.61;59.62
57594;BME280;43423;46.510;6.686;2023-07-31T02:43:09;96576.97;;;17.55;60.00
57594;BME280;43423;46.510;6.686;2023-07-31T02:45:35;96580.03;;;17.27;61.22
57594;BME280;43423;46.510;6.686;2023-07-31T02:48:01;96588.41;;;17.22;60.85
57594;BME280;43423;46.510;6.686;2023-07-31T02:50:26;96595.31;;;17.15;61.09
57594;BME280;43423;46.510;6.686;2023-07-31T02:52:53;96601.97;;;17.07;62.25
57594;BME280;43423;46.510;6.686;2023-07-31T02:55:19;96596.53;;;16.90;62.26
57594;BME280;43423;46.510;6.686;2023-07-31T02:57:45;96610.16;;;16.93;62.32
57594;BME280;43423;46.510;6.686;2023-07-31T03:00:10;96600.25;;;16.62;63.80
57594;BME280;43423;46.510;6.686;2023-07-31T03:02:36;96607.75;;;16.73;63.40
57594;BME280;43423;46.510;6.686;2023-07-31T03:05:02;96606.50;;;16.74;63.88
57594;BME280;43423;46.510;6.686;2023-07-31T03:07:27;96604.75;;;16.71;64.19
57594;BME280;43423;46.510;6.686;2023-07-31T03:09:54;96604.84;;;16.54;64.69
57594;BME280;43423;46.510;6.686;2023-07-31T03:12:19;96606.19;;;16.42;65.31
57594;BME280;43423;46.510;6.686;2023-07-31T03:14:45;96609.78;;;16.31;65.97
57594;BME280;43423;46.510;6.686;2023-07-31T03:17:10;96604.72;;;16.35;66.19
57594;BME280;43423;46.510;6.686;2023-07-31T03:19:36;96612.56;;;16.26;66.26
57594;BME280;43423;46.510;6.686;2023-07-31T03:22:01;96611.22;;;16.43;66.44
57594;BME280;43423;46.510;6.686;2023-07-31T03:24:28;96606.66;;;16.52;66.01
57594;BME280;43423;46.510;6.686;2023-07-31T03:26:53;96598.06;;;16.91;64.58
57594;BME280;43423;46.510;6.686;2023-07-31T03:29:19;96594.78;;;16.87;64.12
57594;BME280;43423;46.510;6.686;2023-07-31T03:31:44;96595.78;;;16.89;63.97
57594;BME280;43423;46.510;6.686;2023-07-31T03:34:10;96599.19;;;17.07;63.80
57594;BME280;43423;46.510;6.686;2023-07-31T03:36:36;96601.16;;;17.36;62.93
57594;BME280;43423;46.510;6.686;2023-07-31T03:39:02;96595.75;;;16.95;63.80
57594;BME280;43423;46.510;6.686;2023-07-31T03:41:28;96605.56;;;16.96;64.35
57594;BME280;43423;46.510;6.686;2023-07-31T03:43:54;96602.16;;;16.84;65.45
57594;BME280;43423;46.510;6.686;2023-07-31T03:46:23;96610.09;;;16.63;65.85
57594;BME280;43423;46.510;6.686;2023-07-31T03:48:49;96603.69;;;16.80;66.18
57594;BME280;43423;46.510;6.686;2023-07-31T03:51:16;96611.97;;;16.85;65.66
57594;BME280;43423;46.510;6.686;2023-07-31T03:53:43;96607.59;;;16.60;66.68
57594;BME280;43423;46.510;6.686;2023-07-31T03:56:09;96596.19;;;16.63;66.62
57594;BME280;43423;46.510;6.686;2023-07-31T03:58:35;96600.13;;;16.43;67.75
57594;BME280;43423;46.510;6.686;2023-07-31T04:01:02;96592.63;;;16.33;68.91
57594;BME280;43423;46.510;6.686;2023-07-31T04:03:29;96592.34;;;16.36;68.69
57594;BME280;43423;46.510;6.686;2023-07-31T04:05:55;96596.44;;;16.30;68.79
57594;BME280;43423;46.510;6.686;2023-07-31T04:08:24;96601.91;;;16.41;68.47
57594;BME280;43423;46.510;6.686;2023-07-31T04:10:50;96610.97;;;16.41;69.36
57594;BME280;43423;46.510;6.686;2023-07-31T04:13:16;96614.00;;;16.43;69.17
57594;BME280;43423;46.510;6.686;2023-07-31T04:15:41;96616.81;;;16.79;68.38
57594;BME280;43423;46.510;6.686;2023-07-31T04:18:07;96612.97;;;16.88;67.81
57594;BME280;43423;46.510;6.686;2023-07-31T04:20:32;96617.53;;;16.85;67.60
57594;BME280;43423;46.510;6.686;2023-07-31T04:22:58;96618.09;;;17.08;67.56
57594;BME280;43423;46.510;6.686;2023-07-31T04:25:24;96617.63;;;17.04;67.23
57594;BME280;43423;46.510;6.686;2023-07-31T04:27:49;96634.28;;;17.04;67.81
57594;BME280;43423;46.510;6.686;2023-07-31T04:30:15;96643.41;;;17.29;66.76
57594;BME280;43423;46.510;6.686;2023-07-31T04:32:41;96635.78;;;17.05;67.67
57594;BME280;43423;46.510;6.686;2023-07-31T04:35:06;96634.66;;;17.19;67.51
57594;BME280;43423;46.510;6.686;2023-07-31T04:37:32;96636.09;;;17.01;68.21
57594;BME280;43423;46.510;6.686;2023-07-31T04:39:57;96633.41;;;17.20;67.78
57594;BME280;43423;46.510;6.686;2023-07-31T04:42:23;96638.13;;;17.31;66.96
57594;BME280;43423;46.510;6.686;2023-07-31T04:44:48;96633.78;;;17.06;68.17
57594;BME280;43423;46.510;6.686;2023-07-31T04:47:14;96636.31;;;17.03;68.43
57594;BME280;43423;46.510;6.686;2023-07-31T04:49:40;96634.66;;;17.19;68.02
57594;BME280;43423;46.510;6.686;2023-07-31T04:52:05;96634.84;;;16.97;68.99
57594;BME280;43423;46.510;6.686;2023-07-31T04:54:31;96625.53;;;16.94;69.50
57594;BME280;43423;46.510;6.686;2023-07-31T04:57:00;96624.53;;;17.22;68.87
57594;BME280;43423;46.510;6.686;2023-07-31T04:59:25;96620.88;;;17.08;69.84
57594;BME280;43423;46.510;6.686;2023-07-31T05:01:51;96625.00;;;16.96;70.89
57594;BME280;43423;46.510;6.686;2023-07-31T05:04:16;96620.38;;;17.10;70.08
57594;BME280;43423;46.510;6.686;2023-07-31T05:06:42;96625.06;;;16.90;70.95
57594;BME280;43423;46.510;6.686;2023-07-31T05:09:07;96627.63;;;17.18;69.35
57594;BME280;43423;46.510;6.686;2023-07-31T05:11:35;96631.34;;;17.51;69.30
57594;BME280;43423;46.510;6.686;2023-07-31T05:14:00;96638.34;;;17.33;69.55
57594;BME280;43423;46.510;6.686;2023-07-31T05:16:26;96653.22;;;16.76;72.71
57594;BME280;43423;46.510;6.686;2023-07-31T05:18:52;96650.97;;;16.63;74.69
57594;BME280;43423;46.510;6.686;2023-07-31T05:21:17;96634.81;;;16.67;74.79
57594;BME280;43423;46.510;6.686;2023-07-31T05:23:43;96636.25;;;16.79;74.12
57594;BME280;43423;46.510;6.686;2023-07-31T05:26:08;96631.78;;;16.70;74.46
57594;BME280;43423;46.510;6.686;2023-07-31T05:28:37;96636.59;;;16.59;77.18
57594;BME280;43423;46.510;6.686;2023-07-31T05:31:04;96639.44;;;16.94;75.64
57594;BME280;43423;46.510;6.686;2023-07-31T05:33:29;96641.84;;;16.73;76.69
57594;BME280;43423;46.510;6.686;2023-07-31T05:35:57;96639.09;;;16.68;78.81
57594;BME280;43423;46.510;6.686;2023-07-31T05:38:22;96638.34;;;16.67;79.46
57594;BME280;43423;46.510;6.686;2023-07-31T05:40:48;96645.22;;;16.96;77.78
57594;BME280;43423;46.510;6.686;2023-07-31T05:43:14;96654.66;;;16.82;77.73
57594;BME280;43423;46.510;6.686;2023-07-31T05:45:42;96652.66;;;17.13;77.19
57594;BME280;43423;46.510;6.686;2023-07-31T05:48:07;96657.63;;;17.25;76.12
57594;BME280;43423;46.510;6.686;2023-07-31T05:50:33;96650.38;;;17.71;73.67
57594;BME280;43423;46.510;6.686;2023-07-31T05:52:58;96662.06;;;17.89;71.61
57594;BME280;43423;46.510;6.686;2023-07-31T05:55:25;96657.75;;;17.93;70.90
57594;BME280;43423;46.510;6.686;2023-07-31T05:57:52;96645.16;;;17.87;70.13
57594;BME280;43423;46.510;6.686;2023-07-31T06:00:18;96637.19;;;17.77;70.48
57594;BME280;43423;46.510;6.686;2023-07-31T06:02:44;96633.56;;;17.82;69.59
57594;BME280;43423;46.510;6.686;2023-07-31T06:05:09;96627.19;;;17.63;71.50
57594;BME280;43423;46.510;6.686;2023-07-31T06:07:35;96627.13;;;17.93;69.81
57594;BME280;43423;46.510;6.686;2023-07-31T06:10:01;96625.88;;;17.94;69.75
57594;BME280;43423;46.510;6.686;2023-07-31T06:12:31;96627.47;;;17.59;72.83
57594;BME280;43423;46.510;6.686;2023-07-31T06:14:56;96613.50;;;17.41;71.96
57594;BME280;43423;46.510;6.686;2023-07-31T06:17:22;96612.41;;;17.98;68.69
57594;BME280;43423;46.510;6.686;2023-07-31T06:19:49;96616.59;;;17.86;69.31
57594;BME280;43423;46.510;6.686;2023-07-31T06:22:14;96616.78;;;18.12;66.80
57594;BME280;43423;46.510;6.686;2023-07-31T06:24:40;96611.31;;;18.26;65.17
57594;BME280;43423;46.510;6.686;2023-07-31T06:27:06;96616.28;;;17.41;68.53
57594;BME280;43423;46.510;6.686;2023-07-31T06:29:32;96618.53;;;17.67;68.50
57594;BME280;43423;46.510;6.686;2023-07-31T06:31:57;96604.59;;;18.16;66.25
57594;BME280;43423;46.510;6.686;2023-07-31T06:34:23;96606.34;;;18.19;67.57
57594;BME280;43423;46.510;6.686;2023-07-31T06:36:48;96611.53;;;18.28;68.66
57594;BME280;43423;46.510;6.686;2023-07-31T06:39:14;96612.13;;;18.02;68.21
57594;BME280;43423;46.510;6.686;2023-07-31T06:41:40;96613.66;;;17.78;69.14
57594;BME280;43423;46.510;6.686;2023-07-31T06:44:05;96616.59;;;17.86;70.24
57594;BME280;43423;46.510;6.686;2023-07-31T06:46:31;96619.63;;;18.45;66.53
57594;BME280;43423;46.510;6.686;2023-07-31T06:48:57;96624.34;;;17.93;68.79
57594;BME280;43423;46.510;6.686;2023-07-31T06:51:22;96630.25;;;17.84;69.41
57594;BME280;43423;46.510;6.686;2023-07-31T06:53:48;96621.47;;;17.80;69.76
57594;BME280;43423;46.510;6.686;2023-07-31T06:56:13;96622.97;;;17.56;70.16
57594;BME280;43423;46.510;6.686;2023-07-31T06:58:39;96624.69;;;17.84;70.17
57594;BME280;43423;46.510;6.686;2023-07-31T07:01:04;96618.13;;;18.62;67.66
57594;BME280;43423;46.510;6.686;2023-07-31T07:03:30;96626.03;;;18.39;68.59
57594;BME280;43423;46.510;6.686;2023-07-31T07:05:55;96625.34;;;18.90;67.95
57594;BME280;43423;46.510;6.686;2023-07-31T07:08:21;96618.72;;;18.55;68.26
57594;BME280;43423;46.510;6.686;2023-07-31T07:10:47;96616.41;;;18.59;67.59
57594;BME280;43423;46.510;6.686;2023-07-31T07:13:13;96618.06;;;18.49;67.47
57594;BME280;43423;46.510;6.686;2023-07-31T07:15:39;96608.63;;;18.90;66.68
57594;BME280;43423;46.510;6.686;2023-07-31T07:18:05;96597.03;;;18.86;67.56
57594;BME280;43423;46.510;6.686;2023-07-31T07:20:30;96596.19;;;18.91;66.29
57594;BME280;43423;46.510;6.686;2023-07-31T07:22:56;96591.53;;;19.25;64.57
57594;BME280;43423;46.510;6.686;2023-07-31T07:25:21;96606.25;;;19.39;65.94
57594;BME280;43423;46.510;6.686;2023-07-31T07:27:47;96600.56;;;18.86;65.08
57594;BME280;43423;46.510;6.686;2023-07-31T07:30:12;96607.56;;;19.51;64.44
57594;BME280;43423;46.510;6.686;2023-07-31T07:32:39;96599.75;;;19.90;63.47
57594;BME280;43423;46.510;6.686;2023-07-31T07:35:06;96598.53;;;18.87;65.97
57594;BME280;43423;46.510;6.686;2023-07-31T07:37:32;96599.72;;;18.91;66.22
57594;BME280;43423;46.510;6.686;2023-07-31T07:39:57;96593.22;;;19.02;64.70
57594;BME280;43423;46.510;6.686;2023-07-31T07:42:26;96600.66;;;19.13;66.71
57594;BME280;43423;46.510;6.686;2023-07-31T07:44:51;96598.78;;;19.74;63.13
57594;BME280;43423;46.510;6.686;2023-07-31T07:47:17;96598.69;;;19.93;63.44
57594;BME280;43423;46.510;6.686;2023-07-31T07:49:42;96607.09;;;19.21;62.48
57594;BME280;43423;46.510;6.686;2023-07-31T07:52:08;96601.59;;;19.61;59.47
57594;BME280;43423;46.510;6.686;2023-07-31T07:54:33;96608.03;;;19.82;61.57
57594;BME280;43423;46.510;6.686;2023-07-31T07:56:59;96603.53;;;19.92;57.46
57594;BME280;43423;46.510;6.686;2023-07-31T07:59:24;96616.47;;;20.16;56.62
57594;BME280;43423;46.510;6.686;2023-07-31T08:01:50;96611.75;;;20.24;58.65
57594;BME280;43423;46.510;6.686;2023-07-31T08:04:15;96612.19;;;19.89;55.43
57594;BME280;43423;46.510;6.686;2023-07-31T08:06:41;96616.09;;;19.99;59.36
57594;BME280;43423;46.510;6.686;2023-07-31T08:09:06;96613.63;;;19.69;54.65
57594;BME280;43423;46.510;6.686;2023-07-31T08:11:34;96623.59;;;19.77;53.35
57594;BME280;43423;46.510;6.686;2023-07-31T08:13:59;96624.75;;;19.95;52.71
57594;BME280;43423;46.510;6.686;2023-07-31T08:16:25;96611.34;;;19.94;51.99
57594;BME280;43423;46.510;6.686;2023-07-31T08:18:51;96612.00;;;19.87;54.49
57594;BME280;43423;46.510;6.686;2023-07-31T08:21:16;96597.19;;;19.92;51.90
57594;BME280;43423;46.510;6.686;2023-07-31T08:23:42;96603.03;;;19.35;52.40
57594;BME280;43423;46.510;6.686;2023-07-31T08:26:07;96603.53;;;19.92;57.11
57594;BME280;43423;46.510;6.686;2023-07-31T08:28:33;96604.94;;;19.59;56.60
57594;BME280;43423;46.510;6.686;2023-07-31T08:31:00;96599.50;;;19.48;55.46
57594;BME280;43423;46.510;6.686;2023-07-31T08:33:25;96595.03;;;19.71;54.69
57594;BME280;43423;46.510;6.686;2023-07-31T08:35:51;96587.63;;;19.74;57.39
57594;BME280;43423;46.510;6.686;2023-07-31T08:38:17;96597.09;;;19.84;55.20
57594;BME280;43423;46.510;6.686;2023-07-31T08:40:42;96601.78;;;20.02;53.07
57594;BME280;43423;46.510;6.686;2023-07-31T08:43:08;96585.63;;;19.61;53.59
57594;BME280;43423;46.510;6.686;2023-07-31T08:45:34;96601.22;;;20.17;54.23
57594;BME280;43423;46.510;6.686;2023-07-31T08:48:00;96605.59;;;20.39;52.53
57594;BME280;43423;46.510;6.686;2023-07-31T08:50:26;96599.47;;;20.54;52.62
57594;BME280;43423;46.510;6.686;2023-07-31T08:52:52;96587.66;;;20.34;52.56
57594;BME280;43423;46.510;6.686;2023-07-31T08:55:18;96584.19;;;20.55;51.38
57594;BME280;43423;46.510;6.686;2023-07-31T08:57:51;96573.94;;;20.23;51.71
57594;BME280;43423;46.510;6.686;2023-07-31T09:00:18;96573.50;;;20.32;50.76
57594;BME280;43423;46.510;6.686;2023-07-31T09:02:48;96576.41;;;20.27;51.20
57594;BME280;43423;46.510;6.686;2023-07-31T09:05:17;96573.94;;;20.23;51.40
57594;BME280;43423;46.510;6.686;2023-07-31T09:07:45;96571.38;;;20.25;53.28
57594;BME280;43423;46.510;6.686;2023-07-31T09:10:12;96570.69;;;20.32;54.32
57594;BME280;43423;46.510;6.686;2023-07-31T09:12:38;96566.88;;;20.22;51.30
57594;BME280;43423;46.510;6.686;2023-07-31T09:15:05;96559.81;;;20.42;52.71
57594;BME280;43423;46.510;6.686;2023-07-31T09:17:35;96554.69;;;20.67;51.42
57594;BME280;43423;46.510;6.686;2023-07-31T09:20:16;96555.44;;;20.33;54.13
57594;BME280;43423;46.510;6.686;2023-07-31T09:22:43;96552.63;;;20.47;53.40
57594;BME280;43423;46.510;6.686;2023-07-31T09:25:20;96554.88;;;20.69;52.28
57594;BME280;43423;46.510;6.686;2023-07-31T09:27:58;96549.72;;;20.94;51.53
57594;BME280;43423;46.510;6.686;2023-07-31T09:30:25;96543.34;;;21.14;50.63
57594;BME280;43423;46.510;6.686;2023-07-31T09:32:52;96543.81;;;21.26;49.69
57594;BME280;43423;46.510;6.686;2023-07-31T09:35:29;96535.84;;;21.30;46.74
57594;BME280;43423;46.510;6.686;2023-07-31T09:37:59;96531.50;;;21.01;47.85
57594;BME280;43423;46.510;6.686;2023-07-31T09:40:30;96524.22;;;21.47;49.36
57594;BME280;43423;46.510;6.686;2023-07-31T09:42:57;96525.13;;;21.42;46.10
57594;BME280;43423;46.510;6.686;2023-07-31T09:45:24;96523.03;;;21.35;45.82
57594;BME280;43423;46.510;6.686;2023-07-31T09:47:50;96523.88;;;21.51;45.39
57594;BME280;43423;46.510;6.686;2023-07-31T09:50:17;96519.88;;;21.74;46.04
57594;BME280;43423;46.510;6.686;2023-07-31T09:52:43;96518.00;;;21.69;44.47
57594;BME280;43423;46.510;6.686;2023-07-31T09:55:09;96518.19;;;21.14;44.33
57594;BME280;43423;46.510;6.686;2023-07-31T09:57:40;96499.97;;;21.21;46.15
57594;BME280;43423;46.510;6.686;2023-07-31T10:00:09;96497.56;;;21.54;48.04
57594;BME280;43423;46.510;6.686;2023-07-31T10:02:36;96505.72;;;21.80;46.11
57594;BME280;43423;46.510;6.686;2023-07-31T10:05:03;96494.34;;;22.22;46.99
57594;BME280;43423;46.510;6.686;2023-07-31T10:07:30;96491.50;;;22.14;48.94
57594;BME280;43423;46.510;6.686;2023-07-31T10:10:00;96488.91;;;22.16;46.97
57594;BME280;43423;46.510;6.686;2023-07-31T10:12:27;96485.00;;;22.35;46.84
57594;BME280;43423;46.510;6.686;2023-07-31T10:14:56;96477.72;;;22.24;47.94
57594;BME280;43423;46.510;6.686;2023-07-31T10:17:25;96487.81;;;22.42;47.37
57594;BME280;43423;46.510;6.686;2023-07-31T10:19:52;96474.03;;;22.44;46.14
57594;BME280;43423;46.510;6.686;2023-07-31T10:22:19;96478.31;;;22.38;46.73
57594;BME280;43423;46.510;6.686;2023-07-31T10:24:46;96476.78;;;21.78;47.03
57594;BME280;43423;46.510;6.686;2023-07-31T10:27:12;96473.09;;;22.49;45.48
57594;BME280;43423;46.510;6.686;2023-07-31T10:29:38;96468.97;;;22.50;45.77
57594;BME280;43423;46.510;6.686;2023-07-31T10:32:06;96469.34;;;22.39;44.65
57594;BME280;43423;46.510;6.686;2023-07-31T10:34:36;96470.84;;;22.48;45.49
57594;BME280;43423;46.510;6.686;2023-07-31T10:39:56;96462.66;;;23.03;44.40
57594;BME280;43423;46.510;6.686;2023-07-31T10:42:30;96469.41;;;22.85;45.06
57594;BME280;43423;46.510;6.686;2023-07-31T10:45:01;96458.53;;;22.97;47.18
57594;BME280;43423;46.510;6.686;2023-07-31T10:47:27;96469.53;;;23.33;46.60
57594;BME280;43423;46.510;6.686;2023-07-31T10:49:53;96461.88;;;22.80;43.67
57594;BME280;43423;46.510;6.686;2023-07-31T10:52:34;96456.09;;;22.63;45.64
57594;BME280;43423;46.510;6.686;2023-07-31T10:55:39;96454.72;;;22.10;48.41
57594;BME280;43423;46.510;6.686;2023-07-31T10:58:12;96454.03;;;22.40;47.06
57594;BME280;43423;46.510;6.686;2023-07-31T11:00:39;96444.66;;;22.22;46.26
57594;BME280;43423;46.510;6.686;2023-07-31T11:03:07;96450.28;;;22.38;42.49
57594;BME280;43423;46.510;6.686;2023-07-31T11:05:59;96445.81;;;22.50;43.08
57594;BME280;43423;46.510;6.686;2023-07-31T11:08:31;96449.56;;;22.68;43.11
57594;BME280;43423;46.510;6.686;2023-07-31T11:11:14;96449.19;;;22.79;43.50
57594;BME280;43423;46.510;6.686;2023-07-31T11:13:46;96451.59;;;22.75;43.83
57594;BME280;43423;46.510;6.686;2023-07-31T11:16:15;96450.66;;;23.26;44.17
57594;BME280;43423;46.510;6.686;2023-07-31T11:18:42;96456.81;;;23.32;41.95
57594;BME280;43423;46.510;6.686;2023-07-31T11:21:16;96448.78;;;23.13;43.76
57594;BME280;43423;46.510;6.686;2023-07-31T11:23:49;96448.81;;;22.67;44.15
57594;BME280;43423;46.510;6.686;2023-07-31T11:26:16;96448.78;;;23.21;43.03
57594;BME280;43423;46.510;6.686;2023-07-31T11:28:42;96448.06;;;22.74;42.28
57594;BME280;43423;46.510;6.686;2023-07-31T11:31:10;96457.03;;;23.03;44.16
57594;BME280;43423;46.510;6.686;2023-07-31T11:33:36;96446.94;;;22.77;43.75
57594;BME280;43423;46.510;6.686;2023-07-31T11:36:02;96453.31;;;23.08;46.26
57594;BME280;43423;46.510;6.686;2023-07-31T11:38:32;96441.69;;;22.74;44.05
57594;BME280;43423;46.510;6.686;2023-07-31T11:41:03;96442.09;;;23.01;46.09
57594;BME280;43423;46.510;6.686;2023-07-31T11:43:29;96437.41;;;23.03;43.99
57594;BME280;43423;46.510;6.686;2023-07-31T11:45:56;96438.72;;;23.02;45.26
57594;BME280;43423;46.510;6.686;2023-07-31T11:48:27;96434.59;;;23.03;43.64
57594;BME280;43423;46.510;6.686;2023-07-31T11:51:02;96433.13;;;22.72;42.81
57594;BME280;43423;46.510;6.686;2023-07-31T11:53:41;96427.69;;;23.04;44.44
57594;BME280;43423;46.510;6.686;2023-07-31T11:56:11;96420.97;;;22.69;44.10
57594;BME280;43423;46.510;6.686;2023-07-31T11:58:38;96414.25;;;22.72;45.17
57594;BME280;43423;46.510;6.686;2023-07-31T12:01:05;96405.25;;;22.97;44.31
57594;BME280;43423;46.510;6.686;2023-07-31T12:03:31;96397.63;;;22.51;45.40
57594;BME280;43423;46.510;6.686;2023-07-31T12:05:58;96400.97;;;22.50;43.65
57594;BME280;43423;46.510;6.686;2023-07-31T12:08:24;96391.97;;;22.97;44.96
57594;BME280;43423;46.510;6.686;2023-07-31T12:10:54;96390.13;;;23.07;45.15
57594;BME280;43423;46.510;6.686;2023-07-31T12:13:21;96376.66;;;22.98;45.20
57594;BME280;43423;46.510;6.686;2023-07-31T12:15:48;96380.38;;;23.08;41.34
57594;BME280;43423;46.510;6.686;2023-07-31T12:18:16;96369.50;;;23.12;41.54
57594;BME280;43423;46.510;6.686;2023-07-31T12:20:46;96368.00;;;23.19;41.10
57594;BME280;43423;46.510;6.686;2023-07-31T12:23:21;96359.22;;;23.23;38.18
57594;BME280;43423;46.510;6.686;2023-07-31T12:26:03;96358.50;;;23.62;39.53
57594;BME280;43423;46.510;6.686;2023-07-31T12:28:29;96348.41;;;23.92;38.75
57594;BME280;43423;46.510;6.686;2023-07-31T12:30:59;96346.91;;;24.16;36.99
57594;BME280;43423;46.510;6.686;2023-07-31T12:33:31;96333.97;;;23.95;38.30
57594;BME280;43423;46.510;6.686;2023-07-31T12:35:57;96333.72;;;24.01;38.86
57594;BME280;43423;46.510;6.686;2023-07-31T12:38:23;96330.81;;;24.16;39.11
57594;BME280;43423;46.510;6.686;2023-07-31T12:40:48;96327.94;;;23.99;39.52
57594;BME280;43423;46.510;6.686;2023-07-31T12:43:14;96323.31;;;23.61;43.02
57594;BME280;43423;46.510;6.686;2023-07-31T12:45:39;96315.75;;;23.79;41.57
57594;BME280;43423;46.510;6.686;2023-07-31T12:48:05;96325.19;;;24.16;42.18
57594;BME280;43423;46.510;6.686;2023-07-31T12:50:31;96329.16;;;24.38;39.49
57594;BME280;43423;46.510;6.686;2023-07-31T12:52:57;96328.22;;;24.95;39.33
57594;BME280;43423;46.510;6.686;2023-07-31T12:55:23;96324.34;;;24.73;40.79
57594;BME280;43423;46.510;6.686;2023-07-31T12:57:49;96325.22;;;24.41;39.44
57594;BME280;43423;46.510;6.686;2023-07-31T13:00:15;96314.31;;;24.63;39.26
57594;BME280;43423;46.510;6.686;2023-07-31T13:02:41;96309.28;;;24.61;39.66
57594;BME280;43423;46.510;6.686;2023-07-31T13:05:07;96298.50;;;24.25;39.43
57594;BME280;43423;46.510;6.686;2023-07-31T13:07:32;96297.34;;;24.36;38.51